createdAt,value
2022-07-29T00:01:42.591Z,1.00
2022-07-29T00:04:10.124Z,1.13
2022-07-29T00:06:37.528Z,1.10
2022-07-29T00:09:05.107Z,1.08
2022-07-29T00:11:32.492Z,1.10
2022-07-29T00:13:59.913Z,1.02
2022-07-29T00:16:27.300Z,0.95
2022-07-29T00:18:54.751Z,1.10
2022-07-29T00:21:22.070Z,1.10
2022-07-29T00:23:49.463Z,1.25
2022-07-29T00:26:16.832Z,0.90
2022-07-29T00:28:44.260Z,0.80
2022-07-29T00:31:11.863Z,0.88
2022-07-29T00:33:39.286Z,0.90
2022-07-29T00:36:07.050Z,0.95
2022-07-29T00:38:34.424Z,0.98
2022-07-29T00:41:01.813Z,1.10
2022-07-29T00:43:29.218Z,0.70
2022-07-29T00:45:56.623Z,1.00
2022-07-29T00:48:24.080Z,1.10
2022-07-29T00:50:52.291Z,1.00
2022-07-29T00:53:21.346Z,0.70
2022-07-29T00:55:49.532Z,0.80
2022-07-29T00:58:17.022Z,0.85
2022-07-29T01:00:45.568Z,0.90
2022-07-29T01:03:13.432Z,0.80
2022-07-29T01:05:49.814Z,0.90
2022-07-29T01:08:19.819Z,0.70
2022-07-29T01:10:48.024Z,0.80
2022-07-29T01:13:17.152Z,0.70
2022-07-29T01:16:14.016Z,0.80
2022-07-29T01:18:46.810Z,0.73
2022-07-29T01:21:35.300Z,0.70
2022-07-29T01:24:05.636Z,0.55
2022-07-29T01:26:55.505Z,0.80
2022-07-29T01:29:40.772Z,0.70
2022-07-29T01:32:28.043Z,0.80
2022-07-29T01:35:10.899Z,0.80
2022-07-29T01:37:48.018Z,0.75
2022-07-29T01:40:30.630Z,0.60
2022-07-29T01:43:01.275Z,0.80
2022-07-29T01:45:38.363Z,0.60
2022-07-29T01:48:17.443Z,0.77
2022-07-29T01:51:29.115Z,0.70
2022-07-29T01:54:30.351Z,0.70
2022-07-29T01:56:59.827Z,0.90
2022-07-29T01:59:28.601Z,0.60
2022-07-29T02:01:59.074Z,0.80
2022-07-29T02:04:30.332Z,0.60
2022-07-29T02:07:02.938Z,0.73
2022-07-29T02:09:34.222Z,0.65
2022-07-29T02:12:04.265Z,0.60
2022-07-29T02:14:38.067Z,0.65
2022-07-29T02:17:05.696Z,0.70
2022-07-29T02:19:35.243Z,0.70
2022-07-29T02:22:03.831Z,0.57
2022-07-29T02:24:32.181Z,0.60
2022-07-29T02:27:01.895Z,0.60
2022-07-29T02:29:31.297Z,0.50
2022-07-29T02:32:01.939Z,0.60
2022-07-29T02:34:30.513Z,0.52
2022-07-29T02:36:57.933Z,0.70
2022-07-29T02:39:29.718Z,0.67
2022-07-29T02:42:03.987Z,0.73
2022-07-29T02:44:34.786Z,0.50
2022-07-29T02:47:42.086Z,0.77
2022-07-29T02:50:21.325Z,0.60
2022-07-29T02:53:00.030Z,0.77
2022-07-29T02:55:31.549Z,0.85
2022-07-29T02:58:29.460Z,0.77
2022-07-29T03:01:29.870Z,0.80
2022-07-29T03:03:57.592Z,0.70
2022-07-29T03:06:38.077Z,0.70
2022-07-29T03:09:13.523Z,0.55
2022-07-29T03:11:49.574Z,0.87
2022-07-29T03:14:20.575Z,0.70
2022-07-29T03:16:49.456Z,0.70
2022-07-29T03:19:17.339Z,0.70
2022-07-29T03:21:44.785Z,0.73
2022-07-29T03:24:24.898Z,0.70
2022-07-29T03:26:52.381Z,0.70
2022-07-29T03:29:19.947Z,0.80
2022-07-29T03:31:47.357Z,0.82
2022-07-29T03:34:16.337Z,0.70
2022-07-29T03:36:44.161Z,0.80
2022-07-29T03:39:15.191Z,0.68
2022-07-29T03:41:45.355Z,0.75
2022-07-29T03:44:15.085Z,0.50
2022-07-29T03:46:44.273Z,0.60
2022-07-29T03:49:15.336Z,0.70
2022-07-29T03:51:43.210Z,0.70
2022-07-29T03:54:10.838Z,0.65
2022-07-29T03:56:41.680Z,0.40
2022-07-29T03:59:10.570Z,0.80
2022-07-29T04:01:39.947Z,0.80
2022-07-29T04:04:07.507Z,0.80
2022-07-29T04:06:43.283Z,0.98
2022-07-29T04:09:11.923Z,0.60
2022-07-29T04:11:59.262Z,0.70
2022-07-29T04:14:30.778Z,0.70
2022-07-29T04:16:58.171Z,0.60
2022-07-29T04:19:25.484Z,0.85
2022-07-29T04:21:52.983Z,0.90
2022-07-29T04:24:20.662Z,0.73
2022-07-29T04:26:48.771Z,0.73
2022-07-29T04:29:16.650Z,1.10
2022-07-29T04:31:44.923Z,0.73
2022-07-29T04:34:13.611Z,0.60
2022-07-29T04:36:41.246Z,0.57
2022-07-29T04:39:09.055Z,0.60
2022-07-29T04:41:36.964Z,0.60
2022-07-29T04:44:12.437Z,0.83
2022-07-29T04:46:40.257Z,0.70
2022-07-29T04:49:07.877Z,0.70
2022-07-29T04:51:35.943Z,0.80
2022-07-29T04:54:03.576Z,0.80
2022-07-29T04:56:31.154Z,0.60
2022-07-29T04:58:58.709Z,0.60
2022-07-29T05:01:26.483Z,0.77
2022-07-29T05:03:58.346Z,0.70
2022-07-29T05:06:27.661Z,0.60
2022-07-29T05:08:55.031Z,0.80
2022-07-29T05:11:24.969Z,0.50
2022-07-29T05:13:54.666Z,0.50
2022-07-29T05:16:22.446Z,0.60
2022-07-29T05:18:49.862Z,0.57
2022-07-29T05:21:17.173Z,0.70
2022-07-29T05:23:44.571Z,0.73
2022-07-29T05:26:12.005Z,0.65
2022-07-29T05:28:39.658Z,0.60
2022-07-29T05:31:07.120Z,0.63
2022-07-29T05:33:37.113Z,0.70
2022-07-29T05:36:08.558Z,0.70
2022-07-29T05:38:39.000Z,0.95
2022-07-29T05:41:07.597Z,0.70
2022-07-29T05:43:35.025Z,0.70
2022-07-29T05:46:02.521Z,0.80
2022-07-29T05:48:29.998Z,0.77
2022-07-29T05:50:57.555Z,0.77
2022-07-29T05:53:25.335Z,0.60
2022-07-29T05:55:53.320Z,0.73
2022-07-29T05:58:20.723Z,0.70
2022-07-29T06:00:48.380Z,0.77
2022-07-29T06:03:15.872Z,0.70
2022-07-29T06:05:43.185Z,0.60
2022-07-29T06:08:10.585Z,0.90
2022-07-29T06:10:38.557Z,0.63
2022-07-29T06:13:06.296Z,0.63
2022-07-29T06:15:34.428Z,0.50
2022-07-29T06:18:02.097Z,0.70
2022-07-29T06:20:33.174Z,0.65
2022-07-29T06:23:01.143Z,0.50
2022-07-29T06:25:33.289Z,0.68
2022-07-29T06:28:00.625Z,0.47
2022-07-29T06:30:29.702Z,0.68
2022-07-29T06:32:57.254Z,0.70
2022-07-29T06:35:38.591Z,0.68
2022-07-29T06:38:30.653Z,0.50
2022-07-29T06:41:08.609Z,0.55
2022-07-29T06:43:52.523Z,0.70
2022-07-29T06:46:23.209Z,0.57
2022-07-29T06:48:51.879Z,0.70
2022-07-29T06:51:22.486Z,0.77
2022-07-29T06:54:00.441Z,0.60
2022-07-29T06:56:38.407Z,0.70
2022-07-29T06:59:08.318Z,0.52
2022-07-29T07:01:39.415Z,0.50
2022-07-29T07:04:06.943Z,0.65
2022-07-29T07:06:34.337Z,0.50
2022-07-29T07:09:01.875Z,0.65
2022-07-29T07:11:29.539Z,0.80
2022-07-29T07:14:02.290Z,0.60
2022-07-29T07:16:31.981Z,0.50
2022-07-29T07:18:59.468Z,0.50
2022-07-29T07:21:27.071Z,0.65
2022-07-29T07:23:57.565Z,0.60
2022-07-29T07:26:24.913Z,0.70
2022-07-29T07:28:52.497Z,0.47
2022-07-29T07:31:20.035Z,0.47
2022-07-29T07:33:47.600Z,0.50
2022-07-29T07:36:15.011Z,0.40
2022-07-29T07:38:42.404Z,0.60
2022-07-29T07:41:09.750Z,0.65
2022-07-29T07:43:37.162Z,0.50
2022-07-29T07:46:04.618Z,0.60
2022-07-29T07:48:32.107Z,0.45
2022-07-29T07:50:59.476Z,0.60
2022-07-29T07:53:27.060Z,0.85
2022-07-29T07:56:11.824Z,0.60
2022-07-29T07:58:40.229Z,0.50
2022-07-29T08:01:08.001Z,0.50
2022-07-29T08:03:36.093Z,0.60
2022-07-29T08:06:04.303Z,0.40
2022-07-29T08:08:31.757Z,0.60
2022-07-29T08:11:02.252Z,0.40
2022-07-29T08:13:33.117Z,0.40
2022-07-29T08:16:02.428Z,0.50
2022-07-29T08:18:31.955Z,0.60
2022-07-29T08:20:59.975Z,0.50
2022-07-29T08:23:31.595Z,0.32
2022-07-29T08:26:02.006Z,0.63
2022-07-29T08:28:29.390Z,0.63
2022-07-29T08:30:56.747Z,0.57
2022-07-29T08:33:24.124Z,0.90
2022-07-29T08:35:51.524Z,1.13
2022-07-29T08:38:18.878Z,0.50
2022-07-29T08:40:47.483Z,0.40
2022-07-29T08:43:15.214Z,0.60
2022-07-29T08:45:51.216Z,0.50
2022-07-29T08:48:23.890Z,0.50
2022-07-29T08:50:58.572Z,0.60
2022-07-29T08:53:29.752Z,0.68
2022-07-29T08:55:58.463Z,0.60
2022-07-29T08:58:27.750Z,1.35
2022-07-29T09:00:57.947Z,0.50
2022-07-29T09:03:28.438Z,0.57
2022-07-29T09:05:56.334Z,0.88
2022-07-29T09:08:24.283Z,1.50
2022-07-29T09:10:52.283Z,2.00
2022-07-29T09:13:19.732Z,1.88
2022-07-29T09:15:47.114Z,1.20
2022-07-29T09:18:33.886Z,0.60
2022-07-29T09:21:20.175Z,0.52
2022-07-29T09:24:05.484Z,0.40
2022-07-29T09:26:34.331Z,0.40
2022-07-29T09:29:08.227Z,0.75
2022-07-29T09:31:38.047Z,0.60
2022-07-29T09:34:06.920Z,0.40
2022-07-29T09:36:45.775Z,1.48
2022-07-29T09:39:15.385Z,1.75
2022-07-29T09:41:55.597Z,1.55
2022-07-29T09:44:24.547Z,1.42
2022-07-29T09:47:09.407Z,1.70
2022-07-29T09:49:51.846Z,1.30
2022-07-29T09:52:19.819Z,0.75
2022-07-29T09:54:47.272Z,0.40
2022-07-29T09:57:44.708Z,0.50
2022-07-29T10:00:18.987Z,0.43
2022-07-29T10:02:47.997Z,0.98
2022-07-29T10:05:26.376Z,1.33
2022-07-29T10:08:03.218Z,1.17
2022-07-29T10:10:34.776Z,1.52
2022-07-29T10:13:12.201Z,0.60
2022-07-29T10:15:45.304Z,1.70
2022-07-29T10:18:14.300Z,1.42
2022-07-29T10:20:42.257Z,1.35
2022-07-29T10:23:10.541Z,1.10
2022-07-29T10:25:38.127Z,0.60
2022-07-29T10:28:07.684Z,0.50
2022-07-29T10:30:35.445Z,0.77
2022-07-29T10:33:17.959Z,0.70
2022-07-29T10:36:18.892Z,0.90
2022-07-29T10:39:15.656Z,1.08
2022-07-29T10:41:58.982Z,1.48
2022-07-29T10:44:28.299Z,1.33
2022-07-29T10:46:56.918Z,1.17
2022-07-29T10:52:15.587Z,0.70
2022-07-29T10:54:48.833Z,1.20
2022-07-29T11:00:27.526Z,0.45
2022-07-29T11:02:57.525Z,1.08
2022-07-29T11:05:32.115Z,1.30
2022-07-29T11:08:21.089Z,1.50
2022-07-29T11:11:15.901Z,0.80
2022-07-29T11:13:48.924Z,1.00
2022-07-29T11:16:17.429Z,0.90
2022-07-29T11:19:13.448Z,1.10
2022-07-29T11:21:55.273Z,1.10
2022-07-29T11:24:30.009Z,1.10
2022-07-29T11:27:09.963Z,1.00
2022-07-29T11:29:55.483Z,0.65
2022-07-29T11:32:24.960Z,1.17
2022-07-29T11:35:18.111Z,0.98
2022-07-29T11:37:52.495Z,1.00
2022-07-29T11:40:23.910Z,1.20
2022-07-29T11:42:52.410Z,1.40
2022-07-29T11:45:41.580Z,0.95
2022-07-29T11:48:29.521Z,0.93
2022-07-29T11:51:00.358Z,0.57
2022-07-29T11:53:28.698Z,1.20
2022-07-29T11:56:01.060Z,0.40
2022-07-29T11:58:30.798Z,1.10
2022-07-29T12:03:46.608Z,0.50
2022-07-29T12:06:18.296Z,1.10
2022-07-29T12:08:47.358Z,0.50
2022-07-29T12:11:22.666Z,0.75
2022-07-29T12:13:51.884Z,0.57
2022-07-29T12:16:25.531Z,0.45
2022-07-29T12:19:00.571Z,0.70
2022-07-29T12:21:54.060Z,1.25
2022-07-29T12:24:26.887Z,0.85
2022-07-29T12:27:00.682Z,1.00
2022-07-29T12:29:34.857Z,0.70
2022-07-29T12:32:05.369Z,0.60
2022-07-29T12:34:33.497Z,0.50
2022-07-29T12:37:01.943Z,0.50
2022-07-29T12:39:29.499Z,1.00
2022-07-29T12:42:04.380Z,0.63
2022-07-29T12:44:52.336Z,0.40
2022-07-29T12:47:20.845Z,0.40
2022-07-29T12:49:48.786Z,1.40
2022-07-29T12:52:33.323Z,1.90
2022-07-29T12:55:01.865Z,1.40
2022-07-29T12:57:30.987Z,1.40
2022-07-29T13:00:06.016Z,1.17
2022-07-29T13:02:33.604Z,0.52
2022-07-29T13:05:02.742Z,0.57
2022-07-29T13:07:54.267Z,1.23
2022-07-29T13:10:24.618Z,1.85
2022-07-29T13:13:09.802Z,1.38
2022-07-29T13:15:39.490Z,1.08
2022-07-29T13:18:27.507Z,1.52
2022-07-29T13:20:55.284Z,1.27
2022-07-29T13:23:23.232Z,0.90
2022-07-29T13:25:50.545Z,1.30
2022-07-29T13:28:18.480Z,1.75
2022-07-29T13:30:45.967Z,1.15
2022-07-29T13:33:13.602Z,0.40
2022-07-29T13:35:40.968Z,0.43
2022-07-29T13:38:08.384Z,0.40
2022-07-29T13:40:36.398Z,1.45
2022-07-29T13:43:03.795Z,0.57
2022-07-29T13:45:31.468Z,0.70
2022-07-29T13:48:01.892Z,1.90
2022-07-29T13:50:29.232Z,1.55
2022-07-29T13:52:57.345Z,0.63
2022-07-29T13:55:24.787Z,0.60
2022-07-29T13:57:53.274Z,1.27
2022-07-29T14:00:20.997Z,1.30
2022-07-29T14:02:48.583Z,1.70
2022-07-29T14:05:15.938Z,1.55
2022-07-29T14:07:43.282Z,1.20
2022-07-29T14:10:10.972Z,1.70
2022-07-29T14:12:39.079Z,1.60
2022-07-29T14:15:06.877Z,1.38
2022-07-29T14:17:35.499Z,1.35
2022-07-29T14:20:03.499Z,1.57
2022-07-29T14:22:31.040Z,1.30
2022-07-29T14:24:58.435Z,2.10
2022-07-29T14:27:37.441Z,2.17
2022-07-29T14:30:06.954Z,1.80
2022-07-29T14:32:34.322Z,1.48
2022-07-29T14:35:01.768Z,2.00
2022-07-29T14:37:39.084Z,2.40
2022-07-29T14:40:08.856Z,2.03
2022-07-29T14:42:37.267Z,1.60
2022-07-29T14:45:06.725Z,2.38
2022-07-29T14:47:35.585Z,1.25
2022-07-29T14:50:04.103Z,2.03
2022-07-29T14:52:31.515Z,1.88
2022-07-29T14:54:58.992Z,2.05
2022-07-29T14:57:27.421Z,2.70
2022-07-29T14:59:54.989Z,2.35
2022-07-29T15:02:23.742Z,0.88
2022-07-29T15:04:55.530Z,1.05
2022-07-29T15:07:22.982Z,0.98
2022-07-29T15:09:50.404Z,1.10
2022-07-29T15:12:17.609Z,0.88
2022-07-29T15:14:45.798Z,0.75
2022-07-29T15:17:13.327Z,1.13
2022-07-29T15:19:45.106Z,1.10
2022-07-29T15:22:12.601Z,0.90
2022-07-29T15:24:39.929Z,0.85
2022-07-29T15:27:07.403Z,0.80
2022-07-29T15:29:34.807Z,0.70
2022-07-29T15:32:02.693Z,0.73
2022-07-29T15:34:30.313Z,0.88
2022-07-29T15:36:57.757Z,1.00
2022-07-29T15:39:25.079Z,0.80
2022-07-29T15:41:52.870Z,1.00
2022-07-29T15:44:21.277Z,0.70
2022-07-29T15:47:05.666Z,0.80
2022-07-29T15:49:48.637Z,0.60
2022-07-29T15:52:25.187Z,0.70
2022-07-29T15:54:55.435Z,0.70
2022-07-29T15:57:23.530Z,0.80
2022-07-29T15:59:51.950Z,0.88
2022-07-29T16:02:19.682Z,0.90
2022-07-29T16:04:47.293Z,1.20
2022-07-29T16:07:15.213Z,0.82
2022-07-29T16:09:43.557Z,0.90
2022-07-29T16:12:15.480Z,0.98
2022-07-29T16:14:44.453Z,0.97
2022-07-29T16:17:14.763Z,0.70
2022-07-29T16:19:43.613Z,0.75
2022-07-29T16:22:11.717Z,0.80
2022-07-29T16:24:39.621Z,0.75
2022-07-29T16:27:07.513Z,0.93
2022-07-29T16:29:37.034Z,0.70
2022-07-29T16:32:06.191Z,0.70
2022-07-29T16:34:33.668Z,0.80
2022-07-29T16:37:01.371Z,0.70
2022-07-29T16:39:28.886Z,0.87
2022-07-29T16:42:00.193Z,0.55
2022-07-29T16:44:29.133Z,0.80
2022-07-29T16:46:58.917Z,0.80
2022-07-29T16:49:28.045Z,0.80
2022-07-29T16:51:55.581Z,1.00
2022-07-29T16:54:23.290Z,0.80
2022-07-29T16:56:50.702Z,0.73
2022-07-29T16:59:18.177Z,0.70
2022-07-29T17:01:45.538Z,0.77
2022-07-29T17:04:14.959Z,0.80
2022-07-29T17:06:42.646Z,0.83
2022-07-29T17:09:12.003Z,0.80
2022-07-29T17:11:52.402Z,1.02
2022-07-29T17:14:25.219Z,0.90
2022-07-29T17:17:02.997Z,0.68
2022-07-29T17:19:33.895Z,0.90
2022-07-29T17:22:11.700Z,0.70
2022-07-29T17:24:42.191Z,0.80
2022-07-29T17:27:10.477Z,0.80
2022-07-29T17:29:39.043Z,1.10
2022-07-29T17:32:09.142Z,1.38
2022-07-29T17:34:41.100Z,1.08
2022-07-29T17:37:11.067Z,0.85
2022-07-29T17:39:41.199Z,3.60
2022-07-29T17:42:14.213Z,1.10
2022-07-29T17:44:41.825Z,1.10
2022-07-29T17:47:16.148Z,0.95
2022-07-29T17:49:44.928Z,1.33
2022-07-29T17:52:12.450Z,1.17
2022-07-29T17:54:39.796Z,1.10
2022-07-29T17:57:07.199Z,1.02
2022-07-29T17:59:34.568Z,1.08
2022-07-29T18:02:02.027Z,1.10
2022-07-29T18:04:31.392Z,1.40
2022-07-29T18:06:59.137Z,1.13
2022-07-29T18:09:26.704Z,1.40
2022-07-29T18:11:54.013Z,1.23
2022-07-29T18:14:21.369Z,1.10
2022-07-29T18:16:48.784Z,1.00
2022-07-29T18:19:16.283Z,0.85
2022-07-29T18:21:51.903Z,0.90
2022-07-29T18:24:25.519Z,1.05
2022-07-29T18:26:53.597Z,1.10
2022-07-29T18:29:21.348Z,0.80
2022-07-29T18:31:48.759Z,1.05
2022-07-29T18:34:17.109Z,0.90
2022-07-29T18:36:45.854Z,0.93
2022-07-29T18:39:20.443Z,0.85
2022-07-29T18:41:50.649Z,1.08
2022-07-29T18:44:22.108Z,0.90
2022-07-29T18:46:51.533Z,1.07
2022-07-29T18:49:19.472Z,0.93
2022-07-29T18:51:47.004Z,0.80
2022-07-29T18:54:14.711Z,0.80
2022-07-29T18:56:42.092Z,0.70
2022-07-29T18:59:10.508Z,1.02
2022-07-29T19:01:38.176Z,0.80
2022-07-29T19:04:05.794Z,0.75
2022-07-29T19:06:33.294Z,0.98
2022-07-29T19:09:00.822Z,1.00
2022-07-29T19:11:28.178Z,0.77
2022-07-29T19:13:55.702Z,0.80
2022-07-29T19:16:23.090Z,0.70
2022-07-29T19:18:50.478Z,1.02
2022-07-29T19:21:17.908Z,0.82
2022-07-29T19:24:01.423Z,0.80
2022-07-29T19:26:36.268Z,0.80
2022-07-29T19:29:04.552Z,0.80
2022-07-29T19:31:31.958Z,1.00
2022-07-29T19:33:59.400Z,0.88
2022-07-29T19:36:27.395Z,0.82
2022-07-29T19:38:54.905Z,0.98
2022-07-29T19:41:22.326Z,0.80
2022-07-29T19:43:52.879Z,0.75
2022-07-29T19:46:22.401Z,0.90
2022-07-29T19:48:50.853Z,0.70
2022-07-29T19:51:18.312Z,0.57
2022-07-29T19:53:45.634Z,0.80
2022-07-29T19:56:13.067Z,0.70
2022-07-29T19:58:41.271Z,0.90
2022-07-29T20:01:10.490Z,0.90
2022-07-29T20:03:40.091Z,1.13
2022-07-29T20:06:08.512Z,0.70
2022-07-29T20:08:36.427Z,0.80
2022-07-29T20:11:04.015Z,0.80
2022-07-29T20:13:33.188Z,0.98
2022-07-29T20:16:01.990Z,0.70
2022-07-29T20:18:29.440Z,0.60
2022-07-29T20:20:57.586Z,0.90
2022-07-29T20:23:25.015Z,0.73
2022-07-29T20:25:52.694Z,1.30
2022-07-29T20:28:22.500Z,0.80
2022-07-29T20:30:49.877Z,0.90
2022-07-29T20:33:17.477Z,1.00
2022-07-29T20:35:44.917Z,0.77
2022-07-29T20:38:16.424Z,0.90
2022-07-29T20:40:45.686Z,0.82
2022-07-29T20:43:13.321Z,0.88
2022-07-29T20:45:40.694Z,0.90
2022-07-29T20:48:08.623Z,0.88
2022-07-29T20:50:36.015Z,0.80
2022-07-29T20:53:03.759Z,0.90
2022-07-29T20:55:32.184Z,0.80
2022-07-29T20:57:59.592Z,0.67
2022-07-29T21:00:27.057Z,1.10
2022-07-29T21:02:54.604Z,0.90
2022-07-29T21:05:22.046Z,1.08
2022-07-29T21:07:49.488Z,0.80
2022-07-29T21:10:18.359Z,0.87
2022-07-29T21:12:49.190Z,0.70
2022-07-29T21:15:17.475Z,0.70
2022-07-29T21:17:47.700Z,1.00
2022-07-29T21:20:19.143Z,1.00
2022-07-29T21:22:46.575Z,1.00
2022-07-29T21:25:13.971Z,1.05
2022-07-29T21:28:01.167Z,0.90
2022-07-29T21:30:28.517Z,0.85
2022-07-29T21:32:55.908Z,0.90
2022-07-29T21:36:06.908Z,0.77
2022-07-29T21:38:11.048Z,0.90
2022-07-29T21:40:38.810Z,0.63
2022-07-29T21:43:06.134Z,0.90
2022-07-29T21:45:33.515Z,0.88
2022-07-29T21:48:00.889Z,0.70
2022-07-29T21:50:28.245Z,0.80
2022-07-29T21:52:55.755Z,1.00
2022-07-29T21:55:23.534Z,0.70
2022-07-29T21:57:54.555Z,0.75
2022-07-29T22:00:25.511Z,1.00
2022-07-29T22:02:55.710Z,0.90
2022-07-29T22:05:23.103Z,0.80
2022-07-29T22:07:56.298Z,1.00
2022-07-29T22:10:25.908Z,0.80
2022-07-29T22:12:55.256Z,0.70
2022-07-29T22:15:23.367Z,0.68
2022-07-29T22:17:51.173Z,0.95
2022-07-29T22:20:18.846Z,1.02
2022-07-29T22:22:47.010Z,0.90
2022-07-29T22:25:14.583Z,0.77
2022-07-29T22:27:42.274Z,0.90
2022-07-29T22:30:10.320Z,0.70
2022-07-29T22:32:37.719Z,0.90
2022-07-29T22:35:05.616Z,0.80
2022-07-29T22:37:33.145Z,0.77
2022-07-29T22:40:00.651Z,1.05
2022-07-29T22:42:28.052Z,1.00
2022-07-29T22:44:55.583Z,0.85
2022-07-29T22:47:46.243Z,0.82
2022-07-29T22:50:10.522Z,0.80
2022-07-29T22:52:37.904Z,0.80
2022-07-29T22:55:06.137Z,0.93
2022-07-29T22:57:34.587Z,1.00
2022-07-29T23:00:02.543Z,0.85
2022-07-29T23:02:30.148Z,1.00
2022-07-29T23:04:57.671Z,0.90
2022-07-29T23:07:25.059Z,0.80
2022-07-29T23:09:52.559Z,0.80
2022-07-29T23:12:19.908Z,0.80
2022-07-29T23:14:47.344Z,0.70
2022-07-29T23:17:14.747Z,1.05
2022-07-29T23:19:42.132Z,1.30
2022-07-29T23:22:09.474Z,1.83
2022-07-29T23:24:36.806Z,1.70
2022-07-29T23:27:04.335Z,2.00
2022-07-29T23:29:36.576Z,2.13
2022-07-29T23:32:04.593Z,2.47
2022-07-29T23:34:31.977Z,2.75
2022-07-29T23:36:59.524Z,2.45
2022-07-29T23:39:27.100Z,2.63
2022-07-29T23:41:54.426Z,2.45
2022-07-29T23:44:21.948Z,2.75
2022-07-29T23:46:49.348Z,3.20
2022-07-29T23:49:16.831Z,2.80
2022-07-29T23:51:44.174Z,2.40
2022-07-29T23:54:11.627Z,2.78
2022-07-29T23:56:38.983Z,2.70
2022-07-29T23:59:06.346Z,2.77
